New Bloomington, Ohio
Current Conditions -  °F | °C
As of 9:53 PM on Thursday 27 Nov 2014 (Local Time) from KMNN Reporting Station
Overcast Overcast  
Wind Chill: -8°   Ceiling: 1800
Heat Index: -2°   Visibility: 10mi
Dew Point: -5°   Wind: 15mph
Humidity: 78%   Direction: 290°WNW
Pressure: 30.29"   Gusts: NA
Location:  40.58°N, 83.32°W
Report Text: KMNN 280253Z AUTO 29013KT 10SM BKN018 OVC023 M02/M05 A3029 RMK AO2 SNE22 SLP272 P0000 60000 T10171050 53012 TSNO
Loading
Personal Weather Stations






























Interactive Weather Map New forecast layout! Learn more

10-Day Weather Forecast

Advertisements
Track Severe Weather on mobile